createdAt,value
2022-11-05T00:00:00.806Z,91.81
2022-11-05T00:05:23.060Z,91.93
2022-11-05T00:10:31.173Z,91.92
2022-11-05T00:15:53.234Z,92.13
2022-11-05T00:20:56.850Z,92.30
2022-11-05T00:26:02.408Z,92.39
2022-11-05T00:31:10.094Z,92.39
2022-11-05T00:36:13.132Z,92.36
2022-11-05T00:41:16.544Z,92.39
2022-11-05T00:46:19.955Z,92.30
2022-11-05T00:51:23.470Z,92.24
2022-11-05T00:56:26.993Z,92.40
2022-11-05T01:01:30.387Z,92.46
2022-11-05T01:06:33.814Z,92.43
2022-11-05T01:11:37.459Z,92.50
2022-11-05T01:16:40.748Z,92.46
2022-11-05T01:21:43.953Z,92.52
2022-11-05T01:26:47.056Z,92.55
2022-11-05T01:31:50.261Z,92.58
2022-11-05T01:36:53.369Z,92.62
2022-11-05T01:41:56.883Z,92.77
2022-11-05T01:47:00.097Z,92.74
2022-11-05T01:52:05.244Z,92.69
2022-11-05T01:57:10.894Z,92.65
2022-11-05T02:02:14.479Z,92.70
2022-11-05T02:07:19.374Z,92.76
2022-11-05T02:12:24.081Z,92.69
2022-11-05T02:17:27.223Z,92.73
2022-11-05T02:22:39.544Z,92.81
2022-11-05T02:27:42.753Z,92.93
2022-11-05T02:33:05.007Z,93.00
2022-11-05T02:38:23.063Z,93.14
2022-11-05T02:43:33.848Z,93.17
2022-11-05T02:48:58.355Z,93.36
2022-11-05T02:54:26.140Z,93.43
2022-11-05T02:59:29.758Z,93.55
2022-11-05T03:04:33.481Z,93.51
2022-11-05T03:09:48.667Z,93.57
2022-11-05T03:15:32.330Z,93.62
2022-11-05T03:20:43.928Z,93.70
2022-11-05T03:25:51.895Z,93.65
2022-11-05T03:30:57.308Z,93.66
2022-11-05T03:36:07.286Z,93.84
2022-11-05T03:41:14.345Z,93.84
2022-11-05T03:46:32.324Z,93.73
2022-11-05T03:51:53.557Z,93.62
2022-11-05T03:57:11.074Z,93.45
2022-11-05T04:02:16.350Z,93.34
2022-11-05T04:07:38.512Z,93.48
2022-11-05T04:13:00.556Z,93.47
2022-11-05T04:18:03.869Z,93.43
2022-11-05T04:23:26.531Z,93.44
2022-11-05T04:28:49.707Z,93.52
2022-11-05T04:33:53.017Z,93.63
2022-11-05T04:38:56.635Z,93.65
2022-11-05T04:43:59.784Z,93.53
2022-11-05T04:49:03.051Z,93.54
2022-11-05T04:54:06.258Z,93.64
2022-11-05T04:59:09.697Z,93.80
2022-11-05T05:04:13.596Z,93.83
2022-11-05T05:09:16.908Z,93.89
2022-11-05T05:14:20.217Z,93.92
2022-11-05T05:19:24.556Z,93.88
2022-11-05T05:24:27.964Z,93.86
2022-11-05T05:29:31.172Z,93.73
2022-11-05T05:34:34.278Z,93.66
2022-11-05T05:39:37.589Z,93.52
2022-11-05T05:44:41.209Z,93.39
2022-11-05T05:49:44.311Z,93.29
2022-11-05T05:54:47.526Z,93.11
2022-11-05T05:59:50.933Z,92.95
2022-11-05T06:04:54.652Z,92.77
2022-11-05T06:09:57.860Z,92.78
2022-11-05T06:15:01.071Z,92.68
2022-11-05T06:20:05.712Z,92.60
2022-11-05T06:25:10.044Z,92.55
2022-11-05T06:30:14.892Z,92.43
2022-11-05T06:35:18.199Z,92.35
2022-11-05T06:40:21.406Z,92.32
2022-11-05T06:45:24.926Z,92.28
2022-11-05T06:50:28.567Z,92.22
2022-11-05T06:55:32.572Z,92.28
2022-11-05T07:00:36.534Z,92.15
2022-11-05T07:05:44.207Z,92.08
2022-11-05T07:10:48.438Z,92.05
2022-11-05T07:15:51.783Z,92.04
2022-11-05T07:20:57.624Z,92.02
2022-11-05T07:26:01.446Z,92.12
2022-11-05T07:31:05.980Z,92.15
2022-11-05T07:36:10.528Z,92.26
2022-11-05T07:41:13.935Z,92.37
2022-11-05T07:46:19.608Z,92.29
2022-11-05T07:51:23.014Z,92.24
2022-11-05T07:56:26.837Z,92.14
2022-11-05T08:01:30.352Z,92.03
2022-11-05T08:06:33.760Z,92.08
2022-11-05T08:11:36.865Z,92.15
2022-11-05T08:16:41.203Z,92.23
2022-11-05T08:21:44.830Z,92.29
2022-11-05T08:26:48.340Z,92.61
2022-11-05T08:31:51.623Z,92.94
2022-11-05T08:36:55.182Z,93.16
2022-11-05T08:41:58.472Z,93.42
2022-11-05T08:47:03.011Z,93.70
2022-11-05T08:52:06.532Z,94.02
2022-11-05T08:57:10.045Z,94.28
2022-11-05T09:02:13.590Z,94.51
2022-11-05T09:07:16.964Z,94.61
2022-11-05T09:12:20.173Z,94.67
2022-11-05T09:17:24.635Z,94.77
2022-11-05T09:22:29.002Z,94.81
2022-11-05T09:27:32.459Z,94.79
2022-11-05T09:32:35.684Z,94.72
2022-11-05T09:37:39.046Z,94.72
2022-11-05T09:42:52.936Z,94.55
2022-11-05T09:48:02.217Z,94.35
2022-11-05T09:53:06.569Z,94.38
2022-11-05T09:58:28.823Z,94.39
2022-11-05T10:03:34.542Z,94.40
2022-11-05T10:08:44.384Z,94.38
2022-11-05T10:13:51.099Z,94.32
2022-11-05T10:19:24.743Z,94.35
2022-11-05T10:24:28.543Z,94.44
2022-11-05T10:29:34.923Z,94.50
2022-11-05T10:34:39.593Z,94.59
2022-11-05T10:39:43.717Z,94.60
2022-11-05T10:45:44.044Z,94.62
2022-11-05T10:50:48.683Z,94.53
2022-11-05T10:55:54.250Z,94.38
2022-11-05T11:00:57.517Z,94.09
2022-11-05T11:06:21.141Z,93.96
2022-11-05T11:11:36.128Z,93.98
2022-11-05T11:16:44.248Z,93.95
2022-11-05T11:22:08.155Z,93.99
2022-11-05T11:27:16.164Z,94.00
2022-11-05T11:32:21.659Z,94.05
2022-11-05T11:37:34.867Z,93.85
2022-11-05T11:42:40.430Z,93.57
2022-11-05T11:47:46.081Z,93.47
2022-11-05T11:52:49.818Z,93.20
2022-11-05T11:58:05.109Z,92.97
2022-11-05T12:03:21.720Z,92.70
2022-11-05T12:08:58.355Z,92.63
2022-11-05T12:14:06.077Z,92.48
2022-11-05T12:19:42.320Z,92.04
2022-11-05T12:25:11.779Z,91.50
2022-11-05T12:30:20.416Z,91.18
2022-11-05T12:35:48.241Z,90.72
2022-11-05T12:41:22.840Z,90.57
2022-11-05T12:46:41.480Z,90.59
2022-11-05T12:51:56.769Z,90.64
2022-11-05T12:57:04.055Z,90.66
2022-11-05T13:02:19.526Z,90.72
2022-11-05T13:07:32.191Z,90.83
2022-11-05T13:12:39.326Z,91.00
2022-11-05T13:18:24.288Z,91.05
2022-11-05T13:23:32.814Z,91.05
2022-11-05T13:29:00.222Z,91.15
2022-11-05T13:34:11.016Z,91.27
2022-11-05T13:39:23.910Z,91.37
2022-11-05T13:44:32.750Z,91.50
2022-11-05T13:49:45.376Z,91.64
2022-11-05T13:55:26.166Z,91.78
2022-11-05T14:00:37.496Z,91.82
2022-11-05T14:05:42.856Z,91.96
2022-11-05T14:10:58.933Z,91.97
2022-11-05T14:16:07.989Z,92.07
2022-11-05T14:21:26.853Z,92.17
2022-11-05T14:26:34.783Z,92.27
2022-11-05T14:37:13.030Z,92.43
2022-11-05T14:42:22.270Z,92.33
2022-11-05T14:47:29.893Z,92.42
2022-11-05T14:52:33.715Z,92.54
2022-11-05T14:57:42.763Z,92.65
2022-11-05T15:03:05.939Z,92.77
2022-11-05T15:08:25.937Z,92.87
2022-11-05T15:13:34.878Z,92.90
2022-11-05T15:18:46.275Z,93.04
2022-11-05T15:23:53.073Z,93.15
2022-11-05T15:28:57.409Z,93.23
2022-11-05T15:34:15.872Z,93.29
2022-11-05T15:39:42.224Z,93.32
2022-11-05T15:44:48.418Z,93.36
2022-11-05T15:49:51.712Z,93.37
2022-11-05T15:55:10.234Z,93.37
2022-11-05T16:00:24.066Z,93.19
2022-11-05T16:05:34.215Z,93.26
2022-11-05T16:10:39.375Z,93.34
2022-11-05T16:15:54.225Z,93.41
2022-11-05T16:21:07.321Z,93.53
2022-11-05T16:26:55.861Z,93.63
2022-11-05T16:31:54.170Z,93.74
2022-11-05T16:36:59.504Z,93.81
2022-11-05T16:42:22.884Z,93.94
2022-11-05T16:47:26.846Z,94.01
2022-11-05T16:52:30.097Z,94.05
2022-11-05T16:57:35.647Z,94.08
2022-11-05T17:02:39.193Z,94.07
2022-11-05T17:07:43.426Z,94.09
2022-11-05T17:12:46.940Z,94.07
2022-11-05T17:17:51.694Z,94.12
2022-11-05T17:22:56.020Z,94.22
2022-11-05T17:28:00.047Z,94.26
2022-11-05T17:33:03.339Z,94.32
2022-11-05T17:38:06.970Z,94.38
2022-11-05T17:43:10.831Z,94.42
2022-11-05T17:48:16.399Z,94.46
2022-11-05T17:53:20.387Z,94.52
2022-11-05T17:58:24.411Z,94.58
2022-11-05T18:03:28.347Z,94.63
2022-11-05T18:08:32.527Z,94.65
2022-11-05T18:13:36.392Z,94.68
2022-11-05T18:18:39.702Z,94.69
2022-11-05T18:23:43.428Z,94.69
2022-11-05T18:28:46.946Z,94.67
2022-11-05T18:33:51.486Z,94.67
2022-11-05T18:38:58.034Z,94.68
2022-11-05T18:44:03.599Z,94.71
2022-11-05T18:49:08.378Z,94.72
2022-11-05T18:54:11.886Z,94.73
2022-11-05T19:05:00.303Z,94.79
2022-11-05T19:10:08.141Z,94.81
2022-11-05T19:15:12.597Z,94.82
2022-11-05T19:20:16.873Z,94.87
2022-11-05T19:25:20.302Z,94.90
2022-11-05T19:30:26.371Z,94.94
2022-11-05T19:35:29.777Z,95.00
2022-11-05T19:40:33.630Z,95.04
2022-11-05T19:45:44.461Z,94.98
2022-11-05T19:50:49.229Z,95.03
2022-11-05T19:55:52.958Z,95.08
2022-11-05T20:00:56.464Z,95.11
2022-11-05T20:06:06.182Z,95.12
2022-11-05T20:11:09.539Z,95.12
2022-11-05T20:16:20.800Z,95.12
2022-11-05T20:21:26.247Z,95.11
2022-11-05T20:26:31.185Z,95.09
2022-11-05T20:31:35.131Z,95.08
2022-11-05T20:36:39.457Z,95.11
2022-11-05T20:41:42.918Z,95.13
2022-11-05T20:46:46.333Z,95.16
2022-11-05T20:51:49.640Z,95.18
2022-11-05T20:56:52.743Z,95.20
2022-11-05T21:01:57.082Z,95.16
2022-11-05T21:07:01.155Z,95.21
2022-11-05T21:12:10.573Z,95.27
2022-11-05T21:17:14.893Z,95.32
2022-11-05T21:22:18.000Z,95.34
2022-11-05T21:27:21.105Z,95.37
2022-11-05T21:32:24.313Z,95.34
2022-11-05T21:37:27.624Z,95.35
2022-11-05T21:42:30.728Z,95.35
2022-11-05T21:47:35.489Z,95.31
2022-11-05T21:52:57.729Z,95.31
2022-11-05T21:58:24.283Z,95.32
2022-11-05T22:03:28.211Z,95.32
2022-11-05T22:08:31.314Z,95.31
2022-11-05T22:13:35.039Z,95.33
2022-11-05T22:18:38.446Z,95.36
2022-11-05T22:23:42.167Z,95.35
2022-11-05T22:28:45.684Z,95.31
2022-11-05T22:33:49.096Z,95.31
2022-11-05T22:38:52.404Z,95.27
2022-11-05T22:43:56.689Z,95.27
2022-11-05T22:49:01.602Z,95.24
2022-11-05T22:54:07.551Z,95.29
2022-11-05T22:59:15.770Z,95.32
2022-11-05T23:04:19.815Z,95.35
2022-11-05T23:09:53.332Z,95.35
2022-11-05T23:14:58.511Z,95.36
2022-11-05T23:20:20.327Z,95.39
2022-11-05T23:25:25.070Z,95.43
2022-11-05T23:30:28.379Z,95.45
2022-11-05T23:36:03.538Z,95.46
2022-11-05T23:41:25.587Z,95.41
2022-11-05T23:46:47.332Z,95.48
2022-11-05T23:51:50.953Z,95.54
2022-11-05T23:56:54.683Z,95.59
